createdAt,value
2022-11-10T00:03:59.446Z,9.82
2022-11-10T00:09:02.556Z,9.82
2022-11-10T00:14:23.943Z,9.84
2022-11-10T00:19:27.110Z,9.85
2022-11-10T00:24:30.306Z,9.78
2022-11-10T00:29:33.586Z,9.82
2022-11-10T00:34:36.742Z,9.75
2022-11-10T00:39:39.798Z,9.79
2022-11-10T00:44:42.906Z,9.81
2022-11-10T00:49:45.981Z,9.80
2022-11-10T00:54:49.135Z,9.81
2022-11-10T00:59:52.297Z,9.80
2022-11-10T01:04:55.516Z,9.75
2022-11-10T01:10:07.532Z,9.77
2022-11-10T01:15:11.666Z,9.72
2022-11-10T01:20:20.026Z,9.76
2022-11-10T01:25:24.474Z,9.83
2022-11-10T01:30:27.535Z,9.84
2022-11-10T01:35:30.755Z,9.90
2022-11-10T01:40:34.002Z,9.87
2022-11-10T01:45:37.300Z,9.87
2022-11-10T01:50:40.443Z,9.87
2022-11-10T01:55:43.586Z,9.89
2022-11-10T02:00:49.088Z,9.86
2022-11-10T02:05:52.230Z,9.85
2022-11-10T02:10:55.343Z,9.89
2022-11-10T02:15:58.565Z,9.89
2022-11-10T02:21:01.752Z,9.83
2022-11-10T02:26:04.892Z,9.88
2022-11-10T02:31:09.269Z,9.90
2022-11-10T02:36:12.371Z,9.83
2022-11-10T02:41:15.507Z,9.87
2022-11-10T02:46:18.830Z,9.83
2022-11-10T02:51:22.002Z,9.91
2022-11-10T02:56:25.178Z,9.57
2022-11-10T03:01:28.655Z,9.16
2022-11-10T03:06:31.826Z,9.00
2022-11-10T03:11:35.074Z,8.86
2022-11-10T03:16:38.328Z,8.77
2022-11-10T03:21:41.405Z,8.77
2022-11-10T03:26:44.619Z,8.69
2022-11-10T03:31:47.846Z,8.71
2022-11-10T03:36:51.101Z,8.84
2022-11-10T03:41:54.258Z,8.86
2022-11-10T03:46:57.399Z,8.78
2022-11-10T03:52:01.703Z,8.78
2022-11-10T03:57:05.280Z,8.80
2022-11-10T04:02:08.491Z,8.84
2022-11-10T04:07:29.585Z,8.82
2022-11-10T04:12:50.392Z,8.87
2022-11-10T04:17:53.783Z,8.83
2022-11-10T04:23:10.942Z,8.86
2022-11-10T04:28:14.092Z,8.91
2022-11-10T04:33:18.269Z,8.85
2022-11-10T04:38:21.375Z,9.01
2022-11-10T04:43:25.072Z,9.06
2022-11-10T04:48:28.953Z,9.03
2022-11-10T04:53:32.149Z,9.03
2022-11-10T04:58:35.308Z,8.94
2022-11-10T05:03:38.531Z,8.86
2022-11-10T05:08:47.383Z,8.85
2022-11-10T05:13:50.981Z,8.85
2022-11-10T05:18:54.233Z,8.87
2022-11-10T05:23:57.515Z,8.86
2022-11-10T05:29:01.002Z,8.90
2022-11-10T05:34:04.349Z,8.93
2022-11-10T05:39:07.536Z,8.91
2022-11-10T05:44:10.642Z,8.84
2022-11-10T05:49:16.480Z,8.84
2022-11-10T05:54:19.638Z,8.90
2022-11-10T05:59:23.873Z,8.91
2022-11-10T06:04:29.422Z,8.86
2022-11-10T06:09:32.557Z,8.90
2022-11-10T06:14:35.805Z,8.91
2022-11-10T06:19:39.045Z,8.89
2022-11-10T06:24:42.270Z,8.91
2022-11-10T06:29:45.485Z,8.90
2022-11-10T06:34:49.177Z,8.88
2022-11-10T06:39:52.625Z,8.98
2022-11-10T06:44:55.887Z,8.93
2022-11-10T06:49:59.812Z,8.91
2022-11-10T06:55:03.131Z,8.82
2022-11-10T07:00:07.404Z,8.58
2022-11-10T07:05:10.806Z,8.56
2022-11-10T07:10:13.964Z,8.59
2022-11-10T07:15:17.085Z,8.47
2022-11-10T07:20:20.394Z,8.47
2022-11-10T07:25:23.533Z,8.57
2022-11-10T07:30:30.314Z,8.85
2022-11-10T07:35:33.684Z,9.39
2022-11-10T07:40:37.041Z,9.75
2022-11-10T07:45:40.651Z,9.90
2022-11-10T07:50:44.774Z,10.17
2022-11-10T07:55:47.871Z,10.29
2022-11-10T08:00:54.452Z,10.40
2022-11-10T08:05:57.823Z,10.55
2022-11-10T08:11:01.100Z,10.64
2022-11-10T08:16:05.439Z,10.66
2022-11-10T08:21:08.962Z,10.43
2022-11-10T08:26:15.084Z,10.29
2022-11-10T08:31:19.428Z,10.16
2022-11-10T08:36:22.531Z,10.09
2022-11-10T08:41:26.025Z,10.15
2022-11-10T08:46:29.173Z,10.14
2022-11-10T08:51:38.725Z,10.26
2022-11-10T08:56:42.373Z,10.31
2022-11-10T09:01:45.589Z,10.64
2022-11-10T09:06:48.849Z,10.77
2022-11-10T09:11:51.921Z,10.93
2022-11-10T09:16:58.833Z,11.27
2022-11-10T09:22:02.560Z,11.37
2022-11-10T09:27:07.777Z,11.88
2022-11-10T09:32:10.995Z,12.28
2022-11-10T09:37:14.139Z,12.91
2022-11-10T09:42:17.361Z,13.30
2022-11-10T09:47:42.381Z,13.11
2022-11-10T09:52:43.964Z,12.68
2022-11-10T09:57:49.032Z,12.50
2022-11-10T10:02:52.333Z,12.75
2022-11-10T10:07:55.546Z,12.75
2022-11-10T10:13:01.131Z,12.83
2022-11-10T10:18:05.092Z,12.77
2022-11-10T10:23:08.261Z,12.80
2022-11-10T10:28:11.414Z,12.61
2022-11-10T10:33:16.354Z,12.48
2022-11-10T10:38:19.698Z,12.22
2022-11-10T10:43:23.052Z,11.98
2022-11-10T10:48:26.198Z,11.75
2022-11-10T10:53:29.372Z,11.80
2022-11-10T10:58:32.652Z,11.87
2022-11-10T11:03:36.317Z,12.00
2022-11-10T11:08:39.612Z,12.08
2022-11-10T11:13:42.860Z,12.25
2022-11-10T11:18:46.152Z,12.64
2022-11-10T11:23:49.419Z,12.98
2022-11-10T11:28:52.759Z,13.13
2022-11-10T11:33:56.115Z,13.54
2022-11-10T11:39:00.496Z,13.60
2022-11-10T11:44:07.923Z,12.89
2022-11-10T11:49:11.659Z,12.55
2022-11-10T11:54:14.784Z,12.51
2022-11-10T11:59:18.241Z,12.48
2022-11-10T12:04:21.470Z,12.88
2022-11-10T12:09:24.688Z,13.08
2022-11-10T12:14:27.870Z,13.32
2022-11-10T12:19:31.142Z,13.72
2022-11-10T12:24:36.342Z,13.81
2022-11-10T12:29:39.545Z,13.35
2022-11-10T12:34:43.824Z,12.83
2022-11-10T12:39:47.033Z,12.93
2022-11-10T12:44:50.203Z,12.74
2022-11-10T12:49:53.419Z,12.63
2022-11-10T12:54:56.590Z,12.47
2022-11-10T13:00:01.562Z,12.40
2022-11-10T13:05:04.804Z,12.43
2022-11-10T13:10:08.227Z,12.44
2022-11-10T13:15:11.522Z,12.22
2022-11-10T13:20:30.804Z,12.07
2022-11-10T13:25:34.564Z,11.80
2022-11-10T13:30:45.467Z,11.67
2022-11-10T13:35:53.716Z,11.60
2022-11-10T13:40:58.271Z,11.59
2022-11-10T13:46:01.526Z,11.58
2022-11-10T13:51:04.824Z,11.46
2022-11-10T13:56:08.152Z,11.44
2022-11-10T14:01:11.378Z,11.42
2022-11-10T14:06:14.592Z,11.37
2022-11-10T14:11:17.735Z,11.30
2022-11-10T14:16:20.972Z,11.35
2022-11-10T14:21:24.242Z,11.28
2022-11-10T14:26:27.672Z,11.23
2022-11-10T14:31:30.986Z,11.19
2022-11-10T14:36:44.133Z,11.37
2022-11-10T14:41:47.359Z,11.31
2022-11-10T14:46:50.506Z,11.28
2022-11-10T14:51:53.749Z,11.26
2022-11-10T14:56:57.054Z,11.18
2022-11-10T15:02:00.240Z,10.99
2022-11-10T15:07:03.551Z,10.97
2022-11-10T15:12:07.793Z,10.91
2022-11-10T15:17:14.574Z,10.67
2022-11-10T15:22:18.881Z,10.69
2022-11-10T15:27:22.025Z,10.47
2022-11-10T15:32:25.119Z,10.29
2022-11-10T15:37:30.907Z,9.99
2022-11-10T15:42:35.104Z,10.05
2022-11-10T15:47:38.716Z,9.93
2022-11-10T15:52:42.209Z,9.77
2022-11-10T15:57:45.337Z,9.65
2022-11-10T16:02:48.570Z,9.51
2022-11-10T16:07:51.854Z,9.30
2022-11-10T16:12:57.210Z,9.20
2022-11-10T16:18:02.563Z,9.12
2022-11-10T16:23:05.740Z,9.11
2022-11-10T16:28:08.868Z,9.18
2022-11-10T16:33:12.024Z,9.12
2022-11-10T16:38:15.224Z,9.01
2022-11-10T16:43:18.296Z,8.75
2022-11-10T16:48:22.468Z,8.59
2022-11-10T16:53:26.060Z,8.45
2022-11-10T16:58:36.423Z,8.41
2022-11-10T17:03:39.237Z,8.30
2022-11-10T17:08:42.089Z,8.18
2022-11-10T17:13:45.704Z,8.10
2022-11-10T17:18:49.359Z,8.08
2022-11-10T17:23:52.663Z,8.07
2022-11-10T17:28:55.864Z,7.99
2022-11-10T17:34:09.103Z,7.95
2022-11-10T17:39:12.221Z,7.95
2022-11-10T17:44:15.531Z,7.83
2022-11-10T17:49:18.673Z,7.78
2022-11-10T17:54:21.753Z,7.66
2022-11-10T17:59:25.149Z,7.65
2022-11-10T18:04:29.219Z,7.66
2022-11-10T18:09:32.783Z,7.58
2022-11-10T18:14:35.886Z,7.50
2022-11-10T18:19:39.710Z,7.41
2022-11-10T18:24:43.531Z,7.45
2022-11-10T18:29:47.456Z,7.33
2022-11-10T18:34:50.685Z,7.35
2022-11-10T18:39:53.954Z,7.28
2022-11-10T18:45:00.351Z,7.22
2022-11-10T18:50:03.526Z,7.07
2022-11-10T18:55:07.193Z,6.91
2022-11-10T19:00:10.293Z,6.93
2022-11-10T19:05:13.736Z,6.89
2022-11-10T19:10:17.094Z,6.90
2022-11-10T19:15:21.149Z,6.88
2022-11-10T19:20:24.734Z,6.86
2022-11-10T19:25:27.882Z,6.80
2022-11-10T19:30:31.002Z,6.84
2022-11-10T19:35:34.595Z,6.77
2022-11-10T19:40:38.916Z,6.61
2022-11-10T19:45:42.199Z,6.58
2022-11-10T19:50:49.426Z,6.60
2022-11-10T19:55:52.664Z,6.45
2022-11-10T20:00:55.740Z,6.52
2022-11-10T20:05:58.825Z,6.44
2022-11-10T20:11:02.091Z,6.42
2022-11-10T20:16:05.567Z,6.43
2022-11-10T20:21:08.665Z,6.27
2022-11-10T20:26:16.720Z,6.27
2022-11-10T20:31:24.379Z,6.25
2022-11-10T20:36:27.641Z,6.27
2022-11-10T20:41:32.904Z,6.19
2022-11-10T20:52:00.998Z,6.14
2022-11-10T20:57:04.205Z,6.08
2022-11-10T21:02:07.405Z,6.12
2022-11-10T21:07:10.820Z,6.17
2022-11-10T21:12:31.741Z,6.14
2022-11-10T21:17:38.075Z,6.16
2022-11-10T21:22:43.328Z,6.10
2022-11-10T21:27:48.115Z,6.09
2022-11-10T21:32:51.478Z,6.00
2022-11-10T21:37:54.810Z,6.04
2022-11-10T21:42:57.895Z,6.09
2022-11-10T21:48:01.666Z,6.08
2022-11-10T21:53:04.777Z,6.10
2022-11-10T21:58:07.922Z,6.15
2022-11-10T22:03:11.174Z,6.14
2022-11-10T22:08:17.298Z,6.07
2022-11-10T22:13:42.345Z,6.05
2022-11-10T22:18:46.546Z,6.02
2022-11-10T22:24:07.341Z,6.06
2022-11-10T22:29:10.625Z,5.97
2022-11-10T22:34:14.633Z,5.91
2022-11-10T22:39:17.741Z,5.75
2022-11-10T22:44:24.861Z,5.61
2022-11-10T22:49:28.776Z,5.51
2022-11-10T22:54:32.472Z,5.48
2022-11-10T22:59:35.711Z,5.40
2022-11-10T23:04:38.827Z,5.39
2022-11-10T23:09:41.979Z,5.42
2022-11-10T23:14:45.173Z,5.40
2022-11-10T23:19:48.588Z,5.46
2022-11-10T23:24:57.360Z,5.39
2022-11-10T23:30:00.758Z,5.39
2022-11-10T23:35:03.855Z,5.48
2022-11-10T23:40:07.187Z,5.48
2022-11-10T23:45:10.417Z,5.50
2022-11-10T23:50:13.662Z,5.32
2022-11-10T23:55:26.892Z,5.19
